Time;durP1;ratioP1;P1;durP2;ratioP2;P2;SDS_P1;SDS_P2;PMS_P1;PMS_P2;Temp;Humidity;BMP_temperature;BMP_pressure;BME280_temperature;BME280_humidity;BME280_pressure;Samples;Min_cycle;Max_cycle;Signal;HPM_P1;HPM_P2
2022/05/10 00:01:32;;;;;;;6.78;3.22;;;;;;;12.73;87.50;101275.63;5229341;28;20063;-78
2022/05/10 00:04:04;;;;;;;6.72;3.33;;;;;;;12.74;87.48;101282.59;5228991;28;20028;-80
2022/05/10 00:06:40;;;;;;;6.20;2.97;;;;;;;12.82;87.92;101284.03;5211630;28;20020;-79
2022/05/10 00:09:13;;;;;;;8.13;3.28;;;;;;;12.80;87.83;101283.25;5228067;28;20452;-78
2022/05/10 00:11:43;;;;;;;8.02;3.20;;;;;;;12.70;88.18;101281.84;5228300;28;20037;-79
2022/05/10 00:14:14;;;;;;;7.85;3.40;;;;;;;12.70;89.09;101275.72;5230398;28;20123;-79
2022/05/10 00:16:45;;;;;;;7.07;3.33;;;;;;;12.71;88.62;101273.06;5229090;28;20025;-78
2022/05/10 00:19:15;;;;;;;7.25;3.50;;;;;;;12.80;87.43;101270.13;5229721;28;20102;-80
2022/05/10 00:21:47;;;;;;;5.95;3.05;;;;;;;12.78;86.82;101269.31;5229385;28;20033;-79
2022/05/10 00:24:17;;;;;;;6.82;3.28;;;;;;;12.61;88.51;101263.78;5231546;28;20050;-80
2022/05/10 00:26:48;;;;;;;10.55;3.33;;;;;;;12.53;88.71;101265.81;5228773;28;20563;-79
2022/05/10 00:29:18;;;;;;;6.72;3.40;;;;;;;12.55;89.24;101257.88;5215297;28;20035;-79
2022/05/10 00:31:48;;;;;;;5.93;3.30;;;;;;;12.46;89.93;101260.81;5227872;28;20037;-79
2022/05/10 00:34:19;;;;;;;5.45;2.95;;;;;;;12.44;89.76;101260.84;5228918;28;20039;-79
2022/05/10 00:36:49;;;;;;;11.40;3.33;;;;;;;12.53;89.79;101259.69;5230646;28;20053;-79
2022/05/10 00:39:19;;;;;;;9.23;3.30;;;;;;;12.61;88.19;101252.44;5231434;28;20390;-79
2022/05/10 00:42:02;;;;;;;6.63;3.17;;;;;;;12.50;89.11;101252.78;5229801;28;20394;-78
2022/05/10 00:44:49;;;;;;;9.30;3.45;;;;;;;12.46;89.58;101247.69;5229970;28;20048;-79
2022/05/10 00:47:40;;;;;;;8.00;3.42;;;;;;;12.42;89.54;101246.94;5228357;28;20029;-79
2022/05/10 00:50:24;;;;;;;7.03;3.65;;;;;;;12.53;88.66;101247.44;5227074;28;20036;-79
2022/05/10 00:53:05;;;;;;;5.63;3.10;;;;;;;12.56;87.91;101236.84;5228445;28;20116;-79
2022/05/10 00:56:09;;;;;;;5.30;3.00;;;;;;;12.44;89.70;101239.88;5227076;28;20031;-78
2022/05/10 00:58:55;;;;;;;6.97;3.42;;;;;;;12.45;89.37;101236.34;5224806;28;20056;-79
2022/05/10 01:01:31;;;;;;;7.38;3.58;;;;;;;12.44;88.90;101231.16;5230014;28;20180;-79
2022/05/10 01:04:17;;;;;;;7.10;3.42;;;;;;;12.46;89.30;101227.56;5230917;28;20025;-79
2022/05/10 01:06:58;;;;;;;7.72;3.47;;;;;;;12.33;89.96;101220.16;5222909;28;20089;-80
2022/05/10 01:09:53;;;;;;;9.90;3.20;;;;;;;12.28;90.42;101222.09;5229987;28;20043;-80
2022/05/10 01:12:39;;;;;;;7.13;3.70;;;;;;;12.26;90.43;101213.41;5229678;28;20332;-79
2022/05/10 01:15:18;;;;;;;7.60;3.72;;;;;;;12.28;90.79;101208.97;5226874;28;20044;-79
2022/05/10 01:17:53;;;;;;;7.55;3.53;;;;;;;12.12;91.30;101211.22;5229751;28;20025;-80
2022/05/10 01:20:42;;;;;;;8.53;3.80;;;;;;;12.02;91.32;101207.19;5229399;28;20033;-80
2022/05/10 01:23:37;;;;;;;9.60;3.60;;;;;;;12.09;90.36;101203.47;5227104;28;20047;-79
2022/05/10 01:26:22;;;;;;;7.88;3.92;;;;;;;11.85;92.80;101199.00;5227100;28;20108;-81
2022/05/10 01:29:05;;;;;;;7.28;3.65;;;;;;;11.89;92.31;101200.59;5229004;28;20025;-79
2022/05/10 01:31:43;;;;;;;7.90;3.55;;;;;;;11.91;93.04;101193.56;5225946;28;20025;-79
2022/05/10 01:34:19;;;;;;;8.68;3.40;;;;;;;11.87;93.30;101189.31;5230432;28;20063;-79
2022/05/10 01:36:59;;;;;;;9.10;3.60;;;;;;;11.74;94.59;101185.34;5227473;28;20017;-80
2022/05/10 01:39:40;;;;;;;10.25;3.72;;;;;;;11.66;94.02;101184.75;5245864;28;20032;-79
2022/05/10 01:42:59;;;;;;;5.70;3.33;;;;;;;11.63;94.89;101182.19;5230833;28;20040;-80
2022/05/10 01:45:48;;;;;;;5.80;3.38;;;;;;;11.70;93.32;101172.41;5166847;28;20314;-79
2022/05/10 01:48:21;;;;;;;8.30;3.70;;;;;;;11.48;94.89;101174.75;5229067;28;20033;-79
2022/05/10 01:50:58;;;;;;;7.82;4.00;;;;;;;11.56;95.03;101175.44;5230374;28;20056;-79
2022/05/10 01:53:35;;;;;;;7.50;3.60;;;;;;;11.41;95.88;101173.25;5231817;28;20482;-79
2022/05/10 01:56:09;;;;;;;6.53;3.78;;;;;;;11.46;95.85;101179.19;5230029;28;20055;-80
2022/05/10 01:58:43;;;;;;;6.93;3.97;;;;;;;11.34;96.32;101179.56;5230789;28;20025;-80
2022/05/10 02:01:33;;;;;;;5.43;3.65;;;;;;;11.41;96.25;101170.63;5229085;28;20025;-80
2022/05/10 02:04:12;;;;;;;7.63;4.25;;;;;;;11.33;96.54;101177.84;5230443;28;20024;-78
2022/05/10 02:06:55;;;;;;;8.40;4.32;;;;;;;11.47;95.25;101164.34;5213459;28;20494;-79
2022/05/10 02:09:42;;;;;;;7.80;3.95;;;;;;;11.48;93.96;101169.53;5230313;28;20033;-80
2022/05/10 02:12:14;;;;;;;8.30;3.78;;;;;;;11.47;95.00;101165.19;5230037;28;20032;-79
2022/05/10 02:14:56;;;;;;;8.10;3.60;;;;;;;11.33;96.03;101171.75;5230078;28;20039;-79
2022/05/10 02:17:47;;;;;;;7.95;4.00;;;;;;;11.43;95.06;101167.97;5228431;28;20051;-80
2022/05/10 02:20:37;;;;;;;9.15;3.80;;;;;;;11.31;96.76;101163.94;5229439;28;20036;-79
2022/05/10 02:23:14;;;;;;;8.25;4.07;;;;;;;11.09;97.53;101162.00;5217581;28;20112;-81
2022/05/10 02:25:51;;;;;;;5.90;4.05;;;;;;;11.14;96.70;101163.56;5232856;28;20029;-80
2022/05/10 02:28:45;;;;;;;6.75;4.00;;;;;;;11.11;98.50;101168.03;5229603;28;20067;-79
2022/05/10 02:31:21;;;;;;;7.90;3.90;;;;;;;11.17;98.53;101162.63;5215333;28;20025;-79
2022/05/10 02:33:54;;;;;;;9.48;4.53;;;;;;;11.38;94.38;101165.50;5234004;28;20026;-79
2022/05/10 02:36:24;;;;;;;8.73;4.70;;;;;;;11.25;96.17;101158.88;5233424;28;20391;-80
2022/05/10 02:38:55;;;;;;;8.65;4.50;;;;;;;10.93;98.87;101155.47;5234026;28;20025;-79
2022/05/10 02:41:25;;;;;;;7.93;4.20;;;;;;;10.77;99.78;101153.31;5233185;28;20033;-79
2022/05/10 02:43:59;;;;;;;8.10;4.70;;;;;;;10.64;100.00;101159.75;5232260;28;20029;-79
2022/05/10 02:46:29;;;;;;;8.23;4.45;;;;;;;10.76;100.00;101157.69;5233697;28;20039;-79
2022/05/10 02:49:00;;;;;;;8.15;4.75;;;;;;;10.66;100.00;101155.38;5233768;28;20033;-79
2022/05/10 02:51:30;;;;;;;9.00;5.00;;;;;;;10.62;100.00;101156.34;5233147;28;20021;-79
2022/05/10 02:54:01;;;;;;;8.00;5.03;;;;;;;10.63;100.00;101155.44;5231566;28;20024;-79
2022/05/10 02:56:32;;;;;;;10.30;4.80;;;;;;;10.59;100.00;101151.19;5231920;28;20076;-80
2022/05/10 02:59:08;;;;;;;7.50;4.88;;;;;;;10.49;100.00;101147.97;5232556;28;20109;-79
2022/05/10 03:01:47;;;;;;;8.68;4.80;;;;;;;10.55;100.00;101142.56;5231779;28;20024;-79
2022/05/10 03:04:17;;;;;;;9.57;5.00;;;;;;;10.67;100.00;101136.19;5231262;28;20037;-80
2022/05/10 03:06:48;;;;;;;6.50;4.38;;;;;;;10.62;100.00;101138.91;5232040;28;20029;-79
2022/05/10 03:09:19;;;;;;;9.13;4.80;;;;;;;10.53;100.00;101138.28;5231731;28;20036;-80
2022/05/10 03:11:49;;;;;;;12.50;5.18;;;;;;;10.61;100.00;101136.31;5230829;28;20033;-80
2022/05/10 03:14:19;;;;;;;7.97;4.40;;;;;;;10.78;99.44;101131.50;5231928;28;20067;-79
2022/05/10 03:16:50;;;;;;;8.57;4.85;;;;;;;10.62;100.00;101131.06;5232728;28;20029;-80
2022/05/10 03:19:20;;;;;;;7.43;4.88;;;;;;;10.63;100.00;101134.53;5232340;28;20028;-80
2022/05/10 03:21:50;;;;;;;9.95;4.78;;;;;;;10.82;99.47;101122.69;5231525;28;20067;-79
2022/05/10 03:24:20;;;;;;;10.35;5.03;;;;;;;10.74;99.52;101138.59;5231829;28;20090;-79
2022/05/10 03:26:52;;;;;;;8.60;5.00;;;;;;;10.57;100.00;101135.56;5231324;28;20021;-78
2022/05/10 03:29:24;;;;;;;10.13;5.22;;;;;;;10.51;100.00;101137.47;5231106;28;20372;-79
2022/05/10 03:31:55;;;;;;;9.48;4.95;;;;;;;10.56;100.00;101132.97;5229114;28;20028;-80
2022/05/10 03:37:14;;;;;;;10.05;4.80;;;;;;;10.62;100.00;101122.34;5229018;28;20092;-80
2022/05/10 03:39:45;;;;;;;7.50;4.82;;;;;;;10.64;100.00;101121.44;5228280;28;20099;-79
2022/05/10 03:42:15;;;;;;;10.85;5.20;;;;;;;10.62;100.00;101119.75;5227184;28;20039;-78
2022/05/10 03:44:49;;;;;;;9.75;5.10;;;;;;;10.72;100.00;101116.00;5228197;28;20473;-78
2022/05/10 03:47:21;;;;;;;7.70;4.97;;;;;;;10.51;100.00;101113.97;5227188;28;20044;-79
2022/05/10 03:49:52;;;;;;;10.35;4.75;;;;;;;10.57;100.00;101113.78;5225631;28;20039;-79
2022/05/10 03:52:23;;;;;;;9.88;5.03;;;;;;;10.71;100.00;101106.44;5225957;28;20032;-79
2022/05/10 03:54:53;;;;;;;10.65;5.22;;;;;;;10.80;100.00;101111.38;5223478;28;20532;-79
2022/05/10 03:57:23;;;;;;;10.52;5.53;;;;;;;10.78;100.00;101107.97;5223318;28;20133;-79
2022/05/10 03:59:53;;;;;;;8.65;5.03;;;;;;;10.91;100.00;101104.13;5223161;28;20122;-79
2022/05/10 04:02:24;;;;;;;9.80;5.50;;;;;;;11.02;100.00;101101.16;5296977;23;20036;-79
2022/05/10 04:04:54;;;;;;;8.57;4.93;;;;;;;11.07;100.00;101095.78;5246337;28;20028;-79
2022/05/10 04:07:25;;;;;;;7.82;4.88;;;;;;;11.09;100.00;101094.81;5245652;28;20119;-78
2022/05/10 04:09:55;;;;;;;11.65;5.28;;;;;;;11.19;100.00;101095.41;5246144;28;20028;-79
2022/05/10 04:12:25;;;;;;;10.68;5.03;;;;;;;11.34;100.00;101097.56;5226986;28;20043;-77
2022/05/10 04:14:56;;;;;;;10.70;5.40;;;;;;;11.13;100.00;101104.28;5224452;28;20025;-78
2022/05/10 04:17:26;;;;;;;9.02;5.75;;;;;;;11.20;100.00;101098.00;5224445;28;20021;-78
2022/05/10 04:19:56;;;;;;;7.97;4.82;;;;;;;11.46;100.00;101099.81;5225032;28;20170;-79
2022/05/10 04:22:27;;;;;;;7.82;4.90;;;;;;;11.67;100.00;101096.56;5225522;28;20021;-79
2022/05/10 04:24:57;;;;;;;6.95;4.43;;;;;;;11.67;100.00;101094.81;5225901;28;20100;-78
2022/05/10 04:27:28;;;;;;;7.68;4.68;;;;;;;11.76;100.00;101091.06;5225013;28;20025;-79
2022/05/10 04:29:58;;;;;;;11.88;4.72;;;;;;;11.82;99.26;101091.69;5223642;28;20572;-77
2022/05/10 04:32:28;;;;;;;9.27;4.95;;;;;;;12.13;97.73;101094.16;5221953;28;20115;-77
2022/05/10 04:34:58;;;;;;;8.45;4.82;;;;;;;12.15;98.68;101092.34;5230821;28;20033;-77
2022/05/10 04:37:29;;;;;;;8.97;5.10;;;;;;;12.14;98.62;101090.66;5217195;28;20021;-78
2022/05/10 04:42:49;;;;;;;10.57;4.93;;;;;;;12.46;97.61;101093.03;5225232;28;20028;-78
2022/05/10 04:45:20;;;;;;;8.52;4.72;;;;;;;12.55;100.00;101087.44;5224609;28;20029;-78
2022/05/10 04:47:50;;;;;;;7.35;4.45;;;;;;;12.86;96.76;101086.31;5222935;28;20513;-78
2022/05/10 04:50:20;;;;;;;7.85;4.07;;;;;;;13.14;94.86;101080.00;5223213;28;20502;-78
2022/05/10 04:52:50;;;;;;;9.10;4.30;;;;;;;13.68;92.31;101077.84;5223813;28;20032;-78
2022/05/10 04:55:21;;;;;;;10.43;4.47;;;;;;;13.82;91.27;101069.38;5222941;28;20024;-78
2022/05/10 04:57:51;;;;;;;10.38;4.22;;;;;;;14.86;87.88;101074.50;5225183;28;20071;-78
2022/05/10 05:00:23;;;;;;;9.75;4.40;;;;;;;15.26;88.49;101071.72;5224258;28;20063;-79
2022/05/10 05:02:53;;;;;;;6.53;3.78;;;;;;;15.58;84.95;101064.06;5220859;28;20195;-78
2022/05/10 05:05:23;;;;;;;6.77;3.37;;;;;;;16.57;80.63;101069.56;5225204;28;20124;-79
2022/05/10 05:07:54;;;;;;;8.35;3.75;;;;;;;16.68;79.44;101083.06;5224532;28;20658;-81
2022/05/10 05:10:24;;;;;;;7.07;4.00;;;;;;;15.80;83.89;101067.34;5225802;28;20056;-81
2022/05/10 05:12:55;;;;;;;6.25;3.33;;;;;;;16.19;82.92;101073.28;5229081;28;20814;-79
2022/05/10 05:15:25;;;;;;;9.23;3.77;;;;;;;16.39;83.82;101074.94;5225302;28;20032;-78
2022/05/10 05:17:55;;;;;;;6.03;3.80;;;;;;;16.28;84.48;101075.47;5224471;28;20274;-80
2022/05/10 05:20:26;;;;;;;5.87;3.20;;;;;;;16.45;85.57;101082.53;5224469;28;20059;-78
2022/05/10 05:22:56;;;;;;;7.60;3.73;;;;;;;16.54;83.10;101082.91;5225033;28;20279;-81
2022/05/10 05:25:27;;;;;;;6.85;3.03;;;;;;;16.72;81.94;101076.69;5222650;28;20274;-81
2022/05/10 05:27:57;;;;;;;7.93;3.40;;;;;;;17.27;79.58;101073.63;5226289;28;20051;-81
2022/05/10 05:30:28;;;;;;;7.43;3.60;;;;;;;16.88;82.94;101070.53;5223616;28;20025;-81
2022/05/10 05:32:59;;;;;;;8.93;3.10;;;;;;;17.51;80.80;101074.94;5224288;28;20267;-81
2022/05/10 05:35:29;;;;;;;8.10;3.28;;;;;;;18.02;77.69;101066.69;5223787;28;20025;-80
2022/05/10 05:38:00;;;;;;;4.97;2.88;;;;;;;17.21;80.29;101076.63;5221883;28;20021;-80
2022/05/10 05:40:32;;;;;;;8.88;3.75;;;;;;;16.41;84.69;101076.56;5222604;28;20564;-79
2022/05/10 05:43:03;;;;;;;6.05;3.25;;;;;;;16.40;84.26;101080.13;5223404;28;20037;-81
2022/05/10 05:45:34;;;;;;;5.82;3.10;;;;;;;16.15;86.97;101071.72;5217783;28;20024;-80
2022/05/10 05:48:04;;;;;;;7.93;3.70;;;;;;;16.52;85.27;101082.16;5221541;28;20058;-81
2022/05/10 05:50:35;;;;;;;6.03;3.50;;;;;;;16.45;87.63;101078.13;5221175;28;20044;-80
2022/05/10 05:53:05;;;;;;;7.53;3.60;;;;;;;16.87;84.22;101075.88;5220913;28;20494;-80
2022/05/10 05:55:35;;;;;;;8.57;3.60;;;;;;;16.51;86.52;101071.66;5222583;28;20445;-80
2022/05/10 05:58:06;;;;;;;6.15;3.33;;;;;;;16.72;84.26;101065.28;5223651;28;20021;-80
2022/05/10 06:00:36;;;;;;;5.88;3.53;;;;;;;16.70;85.61;101068.00;5224174;28;20035;-80
2022/05/10 06:03:07;;;;;;;7.72;3.85;;;;;;;17.07;85.29;101067.72;5224237;28;20017;-80
2022/05/10 06:05:37;;;;;;;6.35;3.40;;;;;;;17.87;81.68;101061.44;5225569;28;20017;-81
2022/05/10 06:08:09;;;;;;;7.05;3.13;;;;;;;18.34;80.73;101051.59;5232822;28;20046;-81
2022/05/10 06:10:39;;;;;;;5.35;3.28;;;;;;;18.65;80.79;101051.47;5234477;28;20090;-80
2022/05/10 06:13:09;;;;;;;6.72;3.25;;;;;;;18.69;79.64;101052.97;5231659;28;20025;-80
2022/05/10 06:15:39;;;;;;;6.20;3.08;;;;;;;19.02;78.72;101052.59;5234248;28;20021;-80
2022/05/10 06:18:10;;;;;;;7.15;3.20;;;;;;;19.77;75.44;101047.69;5231023;28;20021;-81
2022/05/10 06:20:41;;;;;;;9.82;3.00;;;;;;;19.82;76.64;101056.19;5227799;28;20080;-81
2022/05/10 06:23:11;;;;;;;7.63;3.20;;;;;;;19.36;78.22;101051.34;5228812;28;20035;-81
2022/05/10 06:25:41;;;;;;;5.50;2.67;;;;;;;19.43;76.78;101053.50;5228233;28;20052;-81
2022/05/10 06:28:11;;;;;;;4.90;2.73;;;;;;;19.16;78.77;101054.38;5228709;28;20283;-81
2022/05/10 06:30:43;;;;;;;6.17;2.90;;;;;;;20.38;75.33;101053.31;5226668;28;20322;-81
2022/05/10 06:33:15;;;;;;;5.82;2.65;;;;;;;20.54;73.95;101040.69;5226800;28;20787;-82
2022/05/10 06:35:45;;;;;;;5.68;3.10;;;;;;;20.40;74.92;101055.84;5226842;28;20047;-81
2022/05/10 06:38:16;;;;;;;5.85;3.00;;;;;;;20.50;75.66;101044.47;5228393;28;20032;-81
2022/05/10 06:40:49;;;;;;;5.45;3.08;;;;;;;20.34;75.16;101045.66;5227381;28;20032;-81
2022/05/10 06:43:20;;;;;;;5.78;2.85;;;;;;;21.15;73.96;101033.63;5228676;28;20158;-81
2022/05/10 06:45:50;;;;;;;4.88;2.85;;;;;;;21.90;71.73;101032.53;5227060;28;20112;-81
2022/05/10 06:48:21;;;;;;;7.63;2.40;;;;;;;21.51;73.46;101032.75;5227904;28;20029;-81
2022/05/10 06:50:51;;;;;;;6.23;2.47;;;;;;;21.49;71.31;101026.69;5227707;28;20117;-81
2022/05/10 06:53:24;;;;;;;4.23;2.77;;;;;;;21.16;72.20;101035.34;5227995;28;20056;-80
2022/05/10 06:55:54;;;;;;;5.13;2.85;;;;;;;22.24;70.09;101023.69;5227799;28;20733;-81
2022/05/10 06:58:25;;;;;;;7.23;2.73;;;;;;;21.89;71.17;101022.84;5226717;28;20467;-81
2022/05/10 07:00:55;;;;;;;3.95;2.30;;;;;;;22.69;68.99;101021.84;5227386;28;20055;-81
2022/05/10 07:03:30;;;;;;;6.00;2.63;;;;;;;21.50;72.47;101023.06;5226494;28;20267;-81
2022/05/10 07:06:03;;;;;;;5.25;2.65;;;;;;;21.02;74.44;101021.31;5227976;28;20021;-81
2022/05/10 07:08:34;;;;;;;6.10;2.70;;;;;;;20.47;77.19;101018.13;5223118;28;20031;-80
2022/05/10 07:11:06;;;;;;;5.65;3.00;;;;;;;20.33;77.25;101025.34;5226798;28;20025;-80
2022/05/10 07:13:36;;;;;;;6.60;2.80;;;;;;;20.34;78.32;101011.13;5227788;28;20017;-79
2022/05/10 07:16:07;;;;;;;6.07;2.53;;;;;;;20.66;78.22;101018.56;5227147;28;20047;-81
2022/05/10 07:18:37;;;;;;;5.55;2.60;;;;;;;21.30;77.39;101005.06;5225714;28;20063;-81
2022/05/10 07:21:10;;;;;;;5.35;2.70;;;;;;;22.80;72.74;100997.00;5226045;28;20037;-78
2022/05/10 07:23:41;;;;;;;8.57;2.63;;;;;;;23.13;70.31;100997.00;5223564;28;20036;-78
2022/05/10 07:26:11;;;;;;;4.55;2.30;;;;;;;23.81;69.31;100987.72;5222327;28;20032;-79
2022/05/10 07:28:41;;;;;;;5.77;2.23;;;;;;;24.37;66.56;100981.13;5222921;28;20032;-79
2022/05/10 07:31:11;;;;;;;3.97;2.30;;;;;;;24.65;65.33;100995.63;5222570;28;20033;-79
2022/05/10 07:33:42;;;;;;;4.57;2.67;;;;;;;26.30;61.57;100983.94;5222891;28;20648;-78
2022/05/10 07:36:24;;;;;;;6.57;2.43;;;;;;;26.13;60.41;100976.66;5223826;28;20028;-79
2022/05/10 07:38:54;;;;;;;7.22;2.40;;;;;;;27.57;61.34;100974.94;5223639;28;20279;-79
2022/05/10 07:41:25;;;;;;;4.43;2.20;;;;;;;27.25;60.21;100976.44;5223813;28;20025;-79
2022/05/10 07:43:56;;;;;;;5.70;2.60;;;;;;;26.61;61.74;100978.28;5221850;28;20120;-80
2022/05/10 07:46:26;;;;;;;3.38;1.83;;;;;;;26.90;60.00;100979.84;5222421;28;20287;-78
2022/05/10 07:48:57;;;;;;;5.43;1.88;;;;;;;26.92;61.10;100980.53;5222914;28;20425;-79
2022/05/10 07:51:27;;;;;;;4.68;1.85;;;;;;;27.16;60.29;100975.50;5222758;28;20099;-79
2022/05/10 07:53:58;;;;;;;4.70;2.20;;;;;;;27.05;60.42;100973.00;5222686;28;20449;-80
2022/05/10 07:56:28;;;;;;;6.68;2.10;;;;;;;26.63;62.17;100976.28;5221943;28;20083;-78
2022/05/10 07:58:58;;;;;;;3.80;1.98;;;;;;;26.89;61.54;100970.09;5222593;28;20024;-79
2022/05/10 08:01:29;;;;;;;5.88;2.35;;;;;;;26.81;63.11;100970.00;5222190;28;20103;-79
2022/05/10 08:03:59;;;;;;;4.27;2.10;;;;;;;27.19;61.77;100969.84;5223259;28;20383;-78
2022/05/10 08:06:30;;;;;;;3.40;2.05;;;;;;;26.59;63.39;100969.53;5222846;28;20387;-78
2022/05/10 08:09:00;;;;;;;5.18;2.00;;;;;;;26.89;63.42;100972.78;5222674;28;20041;-80
2022/05/10 08:11:30;;;;;;;5.37;1.87;;;;;;;27.85;59.04;100964.97;5221291;28;20029;-80
2022/05/10 08:14:01;;;;;;;4.78;1.80;;;;;;;29.12;55.65;100956.91;5222837;28;20089;-79
2022/05/10 08:16:32;;;;;;;5.47;1.80;;;;;;;30.30;54.63;100959.09;5222954;28;20047;-78
2022/05/10 08:19:02;;;;;;;5.25;1.80;;;;;;;31.27;53.40;100948.66;5223241;28;20212;-79
2022/05/10 08:21:32;;;;;;;3.30;1.73;;;;;;;31.28;53.39;100955.75;5222192;28;20024;-79
2022/05/10 08:24:05;;;;;;;3.20;1.50;;;;;;;30.54;53.39;100953.63;5223417;28;20024;-78
2022/05/10 08:26:36;;;;;;;3.88;1.85;;;;;;;30.72;52.90;100946.19;5221955;28;20352;-79
2022/05/10 08:29:06;;;;;;;3.50;1.60;;;;;;;29.65;53.65;100949.28;5220743;28;20021;-79
2022/05/10 08:31:37;;;;;;;2.57;1.40;;;;;;;29.39;56.17;100953.97;5221490;28;20035;-79
2022/05/10 08:34:07;;;;;;;4.65;1.70;;;;;;;29.42;53.72;100948.22;5221232;28;20029;-79
2022/05/10 08:36:37;;;;;;;4.60;1.87;;;;;;;27.66;54.20;100959.75;5222280;28;20104;-78
2022/05/10 08:39:07;;;;;;;3.20;1.70;;;;;;;27.62;56.43;100951.13;5222302;28;20282;-79
2022/05/10 08:42:02;;;;;;;3.27;1.80;;;;;;;26.98;57.69;100945.06;5221916;28;20427;-78
2022/05/10 08:44:38;;;;;;;4.30;1.90;;;;;;;26.45;58.25;100961.06;5221505;28;20279;-79
2022/05/10 08:47:12;;;;;;;3.40;1.80;;;;;;;26.31;59.84;100961.56;5215873;28;20557;-79
2022/05/10 08:49:45;;;;;;;3.10;1.77;;;;;;;27.19;59.25;100950.19;5221448;28;20033;-78
2022/05/10 08:52:16;;;;;;;3.72;1.67;;;;;;;26.28;57.65;100953.78;5220942;28;20024;-78
2022/05/10 08:54:47;;;;;;;5.20;2.00;;;;;;;26.19;57.59;100952.81;5220817;28;20052;-78
2022/05/10 08:57:39;;;;;;;4.03;2.07;;;;;;;26.28;58.31;100951.94;5221162;28;20025;-78
2022/05/10 09:00:12;;;;;;;3.03;1.60;;;;;;;26.39;57.67;100946.44;5217688;28;20344;-78
2022/05/10 09:02:51;;;;;;;4.82;1.80;;;;;;;26.63;58.50;100946.78;5221005;28;20029;-78
2022/05/10 09:05:28;;;;;;;3.33;1.80;;;;;;;26.72;58.24;100948.56;5221110;28;20154;-77
2022/05/10 09:08:49;;;;;;;5.05;1.88;;;;;;;27.13;55.95;100942.75;5221524;28;20670;-78
2022/05/10 09:11:21;;;;;;;5.10;2.20;;;;;;;27.06;54.38;100933.56;5181650;28;20052;-78
2022/05/10 09:13:52;;;;;;;5.20;2.40;;;;;;;26.44;54.41;100943.28;5219820;28;20624;-78
2022/05/10 09:16:23;;;;;;;6.38;2.65;;;;;;;26.01;55.80;100941.13;5221077;28;20036;-77
2022/05/10 09:18:54;;;;;;;6.03;2.33;;;;;;;25.79;57.40;100943.22;5221308;28;20029;-77
2022/05/10 09:21:52;;;;;;;4.28;1.90;;;;;;;25.39;56.72;100937.19;5220673;28;20398;-78
2022/05/10 09:24:40;;;;;;;4.15;2.13;;;;;;;25.34;57.17;100928.72;5218540;28;20044;-78
2022/05/10 09:27:10;;;;;;;5.53;2.20;;;;;;;25.34;57.79;100934.09;5217443;28;20050;-78
2022/05/10 09:29:47;;;;;;;3.55;1.90;;;;;;;25.37;58.67;100931.13;5221136;28;20688;-78
2022/05/10 09:35:25;;;;;;;4.78;1.95;;;;;;;26.13;59.96;100923.03;5212649;28;20051;-80
2022/05/10 09:38:02;;;;;;;6.78;2.33;;;;;;;26.24;58.47;100920.22;5225483;28;20037;-81
2022/05/10 09:40:41;;;;;;;7.57;2.30;;;;;;;26.50;56.86;100916.75;5224612;28;20486;-81
2022/05/10 09:43:15;;;;;;;6.28;2.33;;;;;;;26.72;56.60;100911.00;5220482;28;20054;-81
2022/05/10 09:46:02;;;;;;;6.53;2.15;;;;;;;27.43;55.87;100908.31;5223785;28;20060;-81
2022/05/10 09:48:34;;;;;;;5.65;2.45;;;;;;;27.58;55.90;100905.94;5225251;28;20120;-80
2022/05/10 09:51:34;;;;;;;6.05;2.50;;;;;;;27.62;56.17;100908.16;5219666;28;20020;-80
2022/05/10 09:54:11;;;;;;;6.00;2.80;;;;;;;27.74;56.12;100898.03;5216814;28;20040;-80
2022/05/10 09:56:44;;;;;;;6.85;2.60;;;;;;;27.85;57.31;100898.66;5222252;28;20094;-81
2022/05/10 09:59:17;;;;;;;6.93;2.53;;;;;;;27.00;57.08;100897.44;5224983;28;20547;-80
2022/05/10 10:01:55;;;;;;;7.90;2.70;;;;;;;27.50;55.06;100892.44;5224977;22;20049;-77
2022/05/10 10:04:40;;;;;;;11.07;2.70;;;;;;;27.74;55.25;100890.81;5215180;28;20056;-77
2022/05/10 10:07:13;;;;;;;;;;;;;;;27.39;55.56;100885.47;5178083;28;20053;-79
2022/05/10 10:09:45;;;;;;;9.57;2.92;;;;;;;26.72;56.47;100886.84;5191236;28;19916;-75
2022/05/10 10:12:37;;;;;;;7.10;2.78;;;;;;;26.80;56.91;100886.97;5201917;28;20069;-77
2022/05/10 10:15:16;;;;;;;6.50;2.80;;;;;;;26.95;56.01;100885.47;5190806;28;20068;-76
2022/05/10 10:17:56;;;;;;;4.95;2.70;;;;;;;26.90;56.51;100885.09;5183133;28;20560;-77
2022/05/10 10:20:40;;;;;;;5.18;2.20;;;;;;;26.92;57.72;100878.56;5187744;28;20033;-78
2022/05/10 10:23:24;;;;;;;4.63;2.20;;;;;;;26.68;57.00;100879.28;5194421;28;20033;-77
2022/05/10 10:26:00;;;;;;;6.43;2.00;;;;;;;26.46;57.26;100877.78;5213131;28;20032;-77
2022/05/10 10:28:42;;;;;;;4.88;2.00;;;;;;;26.59;57.01;100867.59;5212476;28;20033;-77
2022/05/10 10:31:18;;;;;;;6.68;2.13;;;;;;;26.72;56.53;100868.09;5182236;28;20037;-76
2022/05/10 10:34:02;;;;;;;4.18;2.10;;;;;;;26.72;60.32;100862.72;5204415;28;20029;-78
2022/05/10 10:37:00;;;;;;;3.42;1.77;;;;;;;26.51;60.44;100869.34;5206974;28;20040;-76
2022/05/10 10:39:36;;;;;;;5.05;2.10;;;;;;;26.43;60.30;100861.16;5206338;28;20101;-79
2022/05/10 10:42:21;;;;;;;3.03;2.00;;;;;;;26.58;57.80;100857.03;5199091;28;20030;-75
2022/05/10 10:44:56;;;;;;;6.03;1.95;;;;;;;26.82;59.59;100850.97;5206090;28;20625;-77
2022/05/10 10:47:38;;;;;;;5.38;2.00;;;;;;;26.95;59.15;100848.72;5199939;28;20094;-78
2022/05/10 10:50:19;;;;;;;2.88;1.83;;;;;;;27.07;56.45;100844.84;5195986;28;20256;-76
2022/05/10 10:52:51;;;;;;;3.05;1.98;;;;;;;26.94;57.94;100841.69;5206502;28;20037;-77
2022/05/10 10:55:47;;;;;;;5.97;2.03;;;;;;;26.86;57.66;100838.91;5196945;28;20038;-76
2022/05/10 10:58:28;;;;;;;3.40;2.10;;;;;;;27.08;58.14;100843.00;5155046;28;20021;-77
2022/05/10 11:01:27;;;;;;;3.17;1.90;;;;;;;27.14;57.75;100829.81;5210537;28;20037;-77
2022/05/10 11:04:22;;;;;;;6.65;2.00;;;;;;;27.37;57.10;100823.00;5210007;28;20021;-77
2022/05/10 11:06:54;;;;;;;3.13;1.83;;;;;;;27.64;57.17;100819.34;5208102;28;20113;-76
2022/05/10 11:10:08;;;;;;;5.78;2.00;;;;;;;27.44;58.34;100817.84;5190224;28;20034;-77
2022/05/10 11:12:44;;;;;;;2.88;1.85;;;;;;;27.32;56.76;100814.59;5140754;28;20110;-76
2022/05/10 11:15:35;;;;;;;2.97;1.70;;;;;;;27.39;57.28;100810.25;5211418;28;20026;-78
2022/05/10 11:18:46;;;;;;;3.58;2.20;;;;;;;27.21;57.33;100808.56;5218282;28;20045;-76
2022/05/10 11:21:20;;;;;;;4.78;2.20;;;;;;;27.26;58.88;100793.69;5206806;28;20033;-78
2022/05/10 11:24:09;;;;;;;5.72;1.85;;;;;;;27.21;58.98;100796.00;5209037;28;20033;-76
2022/05/10 11:27:06;;;;;;;4.18;2.10;;;;;;;27.20;55.75;100790.78;5215209;28;20032;-76
2022/05/10 11:29:43;;;;;;;4.30;2.25;;;;;;;27.35;57.01;100782.03;5204944;28;20017;-75
2022/05/10 11:32:55;;;;;;;7.80;2.60;;;;;;;27.09;56.75;100774.91;5189630;28;20077;-77
2022/05/10 11:35:51;;;;;;;7.00;2.22;;;;;;;27.10;54.00;100772.09;5166321;28;20034;-78
2022/05/10 11:38:40;;;;;;;5.32;1.92;;;;;;;27.27;54.08;100773.91;5206214;28;20033;-77
2022/05/10 11:41:18;;;;;;;6.57;2.10;;;;;;;27.45;52.05;100769.34;5187588;28;20396;-77
2022/05/10 11:44:08;;;;;;;3.95;2.03;;;;;;;27.44;54.49;100767.66;5208971;28;20139;-76
2022/05/10 11:47:06;;;;;;;4.00;1.90;;;;;;;27.25;55.44;100767.84;5213598;28;20029;-77
2022/05/10 11:50:05;;;;;;;7.07;2.05;;;;;;;27.43;53.41;100763.28;5210958;28;20106;-77
2022/05/10 11:53:18;;;;;;;4.95;2.20;;;;;;;27.46;57.77;100760.28;5202200;28;20061;-76
2022/05/10 11:55:54;;;;;;;2.95;1.70;;;;;;;27.87;55.39;100762.25;5197577;28;20641;-76
2022/05/10 11:58:25;;;;;;;;;;;;;;;28.02;55.08;100760.66;5195217;28;20041;-79
2022/05/10 12:00:59;;;;;;;3.67;1.98;;;;;;;27.72;55.37;100757.63;5208950;28;19985;-76
2022/05/10 12:03:35;;;;;;;3.50;1.80;;;;;;;27.46;55.38;100751.41;5211346;28;20022;-76
2022/05/10 12:06:24;;;;;;;2.88;1.80;;;;;;;27.49;54.66;100749.25;5203724;28;20052;-78
2022/05/10 12:08:56;;;;;;;4.97;2.10;;;;;;;27.00;57.41;100748.97;5207537;28;20032;-77
2022/05/10 12:11:30;;;;;;;4.25;1.88;;;;;;;27.33;54.45;100746.44;5197209;28;20029;-76
2022/05/10 12:23:04;;;;;;;3.78;1.88;;;;;;;27.64;53.88;100728.84;5206292;28;20056;-76